Time;durP1;ratioP1;P1;durP2;ratioP2;P2;SDS_P1;SDS_P2;PMS_P1;PMS_P2;Temp;Humidity;BMP_temperature;BMP_pressure;BME280_temperature;BME280_humidity;BME280_pressure;Samples;Min_cycle;Max_cycle;Signal;HPM_P1;HPM_P2
2023/01/06 01:19:41;;;;;;;5.68;2.05;;;10.40;99.90;;;;;;4735415;30;20106;-92
2023/01/06 01:26:54;;;;;;;;;;;;;;;;;;;;;
2023/01/06 01:30:20;;;;;;;6.35;2.78;;;10.70;99.90;;;;;;4734730;30;20191;-93
2023/01/06 01:34:08;;;;;;;11.32;2.88;;;10.50;99.90;;;;;;4699952;30;20069;-91
2023/01/06 01:37:30;;;;;;;8.35;2.85;;;10.50;99.90;;;;;;4717451;30;20068;-93
2023/01/06 02:48:51;;;;;;;;;;;;;;;;;;;;;
2023/01/06 03:11:59;;;;;;;;;;;;;;;;;;;;;
2023/01/06 03:20:26;;;;;;;1140.40;537.33;;;10.30;99.90;;;;;;4857558;29;20477;-92
2023/01/06 04:20:14;;;;;;;1303.87;535.83;;;10.30;99.90;;;;;;4788981;30;20100;-91
2023/01/06 05:57:42;;;;;;;1197.67;516.67;;;10.00;99.90;;;;;;4787418;30;20042;-90
2023/01/06 06:05:34;;;;;;;;;;;;;;;;;;;;;
2023/01/06 06:13:30;;;;;;;;;;;;;;;;;;;;;
2023/01/06 07:10:50;;;;;;;4.38;2.35;;;9.90;99.90;;;;;;4883704;29;20109;-87
2023/01/06 07:13:31;;;;;;;2.20;1.83;;;9.80;99.90;;;;;;4886894;29;20052;-89
2023/01/06 07:16:22;;;;;;;2.10;1.77;;;9.80;99.90;;;;;;4898164;29;20562;-88
2023/01/06 07:46:13;;;;;;;;;;;;;;;;;;;;;
2023/01/06 08:23:26;;;;;;;1.67;0.20;;;8.90;99.90;;;;;;4843975;29;20175;-91
2023/01/06 08:27:06;;;;;;;2.33;0.30;;;8.80;99.90;;;;;;4826762;29;20057;-91
2023/01/06 08:30:27;;;;;;;0.77;0.20;;;8.60;99.90;;;;;;4825045;29;20114;-88
2023/01/06 08:34:04;;;;;;;;;;;;;;;;;;;;;
2023/01/06 08:37:27;;;;;;;0.95;0.13;;;8.50;99.90;;;;;;4826107;29;20050;-88
2023/01/06 08:40:48;;;;;;;;;;;;;;;;;;;;;
2023/01/06 08:47:27;;;;;;;1.17;0.17;;;8.20;99.90;;;;;;4825454;29;20081;-87
2023/01/06 08:50:39;;;;;;;;;;;;;;;;;;;;;
2023/01/06 08:54:21;;;;;;;;;;;;;;;;;;;;;
2023/01/06 08:56:52;;;;;;;2.13;0.30;;;8.10;99.90;;;;;;4754332;30;20108;-84
2023/01/06 08:59:18;;;;;;;1.45;0.20;;;8.10;99.90;;;;;;4770142;30;20192;-86
2023/01/06 09:01:46;;;;;;;3.53;0.38;;;7.90;99.90;;;;;;4769770;30;20056;-87
2023/01/06 09:04:15;;;;;;;0.20;0.20;;;7.50;99.90;;;;;;4768367;30;20062;-86
2023/01/06 09:06:43;;;;;;;1.13;0.20;;;8.00;99.90;;;;;;4754307;29;20094;-86
2023/01/06 09:09:11;;;;;;;0.75;0.20;;;8.00;99.90;;;;;;4737269;30;20056;-87
2023/01/06 09:11:43;;;;;;;0.73;0.20;;;8.10;99.90;;;;;;4737599;30;20090;-86
2023/01/06 09:14:19;;;;;;;1.65;0.20;;;8.10;99.90;;;;;;4752186;30;20092;-87
2023/01/06 09:16:49;;;;;;;1.85;0.20;;;8.00;99.90;;;;;;4752315;30;20048;-85
2023/01/06 09:19:20;;;;;;;1.30;0.20;;;8.00;99.90;;;;;;4737583;30;20062;-86
2023/01/06 09:21:51;;;;;;;1.20;0.30;;;8.10;99.90;;;;;;4751735;30;20064;-86
2023/01/06 09:24:20;;;;;;;0.45;0.13;;;8.00;99.90;;;;;;4737085;30;20052;-85
2023/01/06 09:26:55;;;;;;;5.90;0.35;;;7.90;99.90;;;;;;4752592;30;20091;-85
2023/01/06 09:29:29;;;;;;;5.30;0.50;;;8.10;99.90;;;;;;4769866;30;20082;-86
2023/01/06 09:32:15;;;;;;;0.17;0.10;;;8.10;99.90;;;;;;4769641;30;20048;-86
2023/01/06 09:34:44;;;;;;;1.60;0.30;;;8.10;99.90;;;;;;4839879;29;20053;-87
2023/01/06 09:37:16;;;;;;;5.03;0.40;;;8.10;99.90;;;;;;4842690;29;20046;-87
2023/01/06 09:39:53;;;;;;;1.55;0.40;;;8.10;99.90;;;;;;4842432;29;20054;-86
2023/01/06 09:43:03;;;;;;;1.85;0.45;;;8.10;99.90;;;;;;4843849;29;20129;-86
2023/01/06 09:45:51;;;;;;;2.50;0.50;;;8.10;99.90;;;;;;4827035;29;20053;-87
2023/01/06 09:48:33;;;;;;;887.53;399.50;;;8.10;99.90;;;;;;4836361;29;20559;-88
2023/01/06 09:51:06;;;;;;;1015.63;503.73;;;8.20;99.90;;;;;;4825365;29;20053;-87
2023/01/06 09:53:54;;;;;;;903.07;450.80;;;8.30;99.90;;;;;;4825283;29;20190;-86
2023/01/06 09:56:33;;;;;;;1059.37;498.07;;;8.30;99.90;;;;;;4809633;29;20057;-88
2023/01/06 09:59:24;;;;;;;1028.83;494.67;;;8.40;99.90;;;;;;4842128;29;20045;-86
2023/01/06 10:03:03;;;;;;;;;;;;;;;;;;;;;
2023/01/06 10:06:44;;;;;;;;;;;;;;;;;;;;;
2023/01/06 10:09:59;;;;;;;808.43;422.57;;;8.30;99.90;;;;;;4742185;30;20160;-88
2023/01/06 10:13:52;;;;;;;1008.20;501.07;;;8.40;99.90;;;;;;4766693;30;20051;-88
2023/01/06 10:17:28;;;;;;;1002.73;418.47;;;8.50;99.90;;;;;;4767268;29;20591;-87
2023/01/06 10:20:56;;;;;;;;;;;;;;;;;;;;;
2023/01/06 10:28:18;;;;;;;;;;;;;;;;;;;;;
2023/01/06 10:35:28;;;;;;;1095.60;516.37;;;8.40;99.90;;;;;;4678668;30;20063;-88
2023/01/06 10:38:43;;;;;;;1216.63;514.97;;;8.50;99.90;;;;;;4631755;30;20070;-87
2023/01/06 10:45:41;;;;;;;1194.53;524.93;;;9.10;99.90;;;;;;4704055;30;20203;-88
2023/01/06 10:49:04;;;;;;;1112.23;559.10;;;8.60;99.90;;;;;;4714289;30;20068;-87
2023/01/06 10:52:23;;;;;;;1200.27;433.40;;;8.60;99.90;;;;;;4711777;30;20065;-87
2023/01/06 10:55:16;;;;;;;;;;;;;;;;;;;;;
2023/01/06 11:07:10;;;;;;;1256.93;528.93;;;8.90;99.90;;;;;;4665729;30;20062;-86
2023/01/06 11:10:56;;;;;;;1217.00;460.83;;;8.90;99.90;;;;;;4632888;30;20101;-88
2023/01/06 11:14:33;;;;;;;;;;;;;;;;;;;;;
2023/01/06 11:22:05;;;;;;;1289.90;522.33;;;9.10;99.90;;;;;;4661986;30;20133;-87
2023/01/06 11:25:49;;;;;;;1242.50;477.67;;;9.20;99.90;;;;;;4646529;30;20548;-89
2023/01/06 11:29:13;;;;;;;1263.88;489.33;;;9.10;99.90;;;;;;4629426;31;20509;-88
2023/01/06 11:32:53;;;;;;;;;;;;;;;;;;;;;
2023/01/06 11:36:09;;;;;;;1301.93;519.27;;;9.20;99.90;;;;;;4645839;30;20086;-87
2023/01/06 11:39:45;;;;;;;1246.23;477.67;;;9.30;99.90;;;;;;4679047;30;20081;-88
2023/01/06 11:43:52;;;;;;;;;;;;;;;;;;;;;
2023/01/06 11:51:24;;;;;;;1230.47;469.05;;;9.30;99.90;;;;;;5068163;28;20084;-89
2023/01/06 11:54:51;;;;;;;1276.30;517.63;;;9.40;99.90;;;;;;4992170;28;20533;-87
2023/01/06 11:58:41;;;;;;;;;;;;;;;;;;;;;
2023/01/06 12:06:02;;;;;;;1242.50;484.60;;;9.20;99.90;;;;;;4705102;30;20058;-89
2023/01/06 12:09:33;;;;;;;1273.37;518.47;;;9.70;99.90;;;;;;4696265;30;20052;-88
2023/01/06 12:21:21;;;;;;;1238.83;474.20;;;9.70;99.90;;;;;;5068506;28;20055;-88
2023/01/06 12:25:08;;;;;;;1235.03;472.35;;;9.60;99.90;;;;;;5068417;28;20053;-88
2023/01/06 12:28:33;;;;;;;;;;;;;;;;;;;;;
2023/01/06 12:31:50;;;;;;;1245.43;519.97;;;9.70;99.90;;;;;;4953052;28;20059;-88
2023/01/06 12:34:26;;;;;;;1214.17;518.83;;;9.60;99.90;;;;;;4953430;28;20519;-88
2023/01/06 12:37:26;;;;;;;999.20;392.15;;;9.80;99.90;;;;;;4979611;28;20293;-87
2023/01/06 12:40:10;;;;;;;1112.73;498.13;;;9.80;99.90;;;;;;4972840;28;20122;-88
2023/01/06 12:43:00;;;;;;;1089.30;410.67;;;9.80;99.90;;;;;;4953715;28;20051;-88
2023/01/06 12:46:01;;;;;;;1.92;0.50;;;9.70;99.90;;;;;;4952653;28;20079;-88
2023/01/06 12:48:50;;;;;;;2.63;0.30;;;9.70;99.90;;;;;;4971828;28;20050;-89
2023/01/06 12:51:45;;;;;;;3.42;0.30;;;9.70;99.90;;;;;;4991605;28;20454;-88
2023/01/06 12:54:29;;;;;;;4.45;0.47;;;9.60;99.90;;;;;;4975293;28;20490;-88
2023/01/06 12:57:47;;;;;;;3.20;0.40;;;9.60;99.90;;;;;;5008153;28;20054;-88
2023/01/06 13:00:40;;;;;;;3.50;0.30;;;9.60;99.90;;;;;;5006727;28;20085;-88
2023/01/06 13:03:47;;;;;;;6.45;0.70;;;9.50;99.90;;;;;;4996305;28;20129;-88
2023/01/06 13:06:45;;;;;;;2.88;0.40;;;9.60;99.90;;;;;;5047630;28;20121;-88
2023/01/06 13:09:46;;;;;;;4.75;0.60;;;9.50;99.90;;;;;;5151179;27;20043;-88
2023/01/06 13:12:53;;;;;;;2.75;0.32;;;9.60;99.90;;;;;;5150605;27;20077;-87
2023/01/06 13:15:32;;;;;;;5.65;2.15;;;9.50;99.90;;;;;;5145414;27;20046;-88
2023/01/06 13:18:15;;;;;;;4.40;0.40;;;9.60;99.90;;;;;;5154767;27;20439;-88
2023/01/06 13:21:00;;;;;;;8.32;0.50;;;9.20;99.90;;;;;;5168931;27;20046;-88
2023/01/06 13:24:28;;;;;;;3.35;0.57;;;9.50;99.90;;;;;;5158370;27;20073;-88
2023/01/06 13:27:30;;;;;;;946.10;425.15;;;9.50;99.90;;;;;;5159656;27;20522;-87
2023/01/06 13:30:29;;;;;;;971.37;489.67;;;9.20;99.90;;;;;;5139961;27;20129;-89
2023/01/06 13:33:15;;;;;;;1111.20;469.17;;;9.40;99.90;;;;;;5139322;27;20054;-88
2023/01/06 13:36:02;;;;;;;1175.17;513.57;;;9.40;99.90;;;;;;5139484;27;20050;-89
2023/01/06 13:38:58;;;;;;;1107.78;531.55;;;9.30;99.90;;;;;;5138973;27;20049;-89
2023/01/06 13:41:34;;;;;;;1167.07;521.33;;;9.30;99.90;;;;;;5139615;27;20035;-89
2023/01/06 13:44:19;;;;;;;1104.53;428.30;;;9.20;99.90;;;;;;5157928;27;20126;-89
2023/01/06 13:46:54;;;;;;;1074.10;412.23;;;9.20;99.90;;;;;;5139843;27;20280;-88
2023/01/06 13:49:22;;;;;;;1022.73;406.73;;;9.30;99.90;;;;;;5139339;27;20308;-88
2023/01/06 13:52:03;;;;;;;602.47;299.60;;;9.20;99.90;;;;;;5157853;27;20307;-89
2023/01/06 13:54:41;;;;;;;166.38;120.13;;;9.20;99.90;;;;;;5157295;27;20050;-88
2023/01/06 13:57:41;;;;;;;630.57;401.60;;;9.20;99.90;;;;;;5159395;27;20038;-88
2023/01/06 14:08:25;;;;;;;651.07;397.40;;;9.00;99.90;;;;;;5014004;28;20085;-89
2023/01/06 14:20:02;;;;;;;5.75;0.63;;;9.00;99.90;;;;;;4954735;29;20098;-88
2023/01/06 14:24:01;;;;;;;;;;;;;;;;;;;;;
2023/01/06 14:30:57;;;;;;;48.05;31.40;;;8.90;99.90;;;;;;4799842;29;20039;-87
2023/01/06 14:34:13;;;;;;;6.95;0.82;;;8.80;99.90;;;;;;4787024;29;20454;-88
2023/01/06 14:37:34;;;;;;;2.88;0.40;;;8.80;99.90;;;;;;4795478;29;20043;-88
2023/01/06 14:41:06;;;;;;;;;;;;;;;;;;;;;
2023/01/06 14:44:47;;;;;;;;;;;;;;;;;;;;;
2023/01/06 14:48:32;;;;;;;3.25;0.30;;;8.70;99.90;;;;;;4826673;29;20503;-89
2023/01/06 14:52:15;;;;;;;2.97;0.50;;;8.70;99.90;;;;;;4822757;29;20405;-88
2023/01/06 14:56:09;;;;;;;2.33;0.90;;;9.00;99.90;;;;;;5017656;22;20018;-88
2023/01/06 14:59:54;;;;;;;;;;;;;;;;;;;;;
2023/01/06 15:11:15;;;;;;;;;;;;;;;;;;;;;
2023/01/06 15:14:33;;;;;;;4.03;1.00;;;8.50;99.90;;;;;;4989708;28;20434;-87
2023/01/06 15:17:56;;;;;;;5.55;0.50;;;8.40;99.90;;;;;;4985655;28;20454;-86
2023/01/06 15:21:16;;;;;;;2.65;0.60;;;8.40;99.90;;;;;;4994773;28;20061;-87
2023/01/06 15:24:56;;;;;;;5.95;0.50;;;8.50;99.90;;;;;;4994648;28;20061;-90
2023/01/06 15:28:21;;;;;;;326.00;283.42;;;8.20;99.90;;;;;;4993980;28;20092;-91
2023/01/06 15:35:42;;;;;;;;;;;;;;;;;;;;;
2023/01/06 15:39:11;;;;;;;1049.50;482.80;;;8.80;99.90;;;;;;4965183;28;20046;-87
2023/01/06 15:42:30;;;;;;;;;;;;;;;;;;;;;
2023/01/06 15:45:48;;;;;;;;;;;;;;;;;;;;;
2023/01/06 15:49:29;;;;;;;;;;;;;;;;;;;;;
2023/01/06 15:53:00;;;;;;;1105.90;478.90;;;8.10;99.90;;;;;;5070551;28;20064;-87
2023/01/06 15:55:47;;;;;;;1152.37;473.73;;;8.10;99.90;;;;;;4981544;28;20128;-85
2023/01/06 16:06:57;;;;;;;983.90;487.17;;;8.00;99.90;;;;;;4952719;29;20431;-85
2023/01/06 16:17:39;;;;;;;680.15;449.48;;;7.60;99.90;;;;;;4954946;29;20090;-89
2023/01/06 16:51:10;;;;;;;693.85;452.67;;;7.70;99.90;;;;;;4855508;29;20062;-91
2023/01/06 16:57:40;;;;;;;726.83;392.92;;;8.20;99.90;;;;;;4851046;29;20419;-88
2023/01/06 17:50:20;;;;;;;917.27;395.77;;;7.20;99.90;;;;;;4885964;29;20072;-86
2023/01/06 18:05:11;;;;;;;956.20;427.13;;;6.90;99.90;;;;;;4860597;29;20048;-90
2023/01/06 18:12:21;;;;;;;932.07;399.93;;;6.90;99.90;;;;;;4844752;29;20045;-88
2023/01/06 18:57:50;;;;;;;845.57;410.17;;;6.30;99.90;;;;;;5074326;28;20541;-90
2023/01/06 19:27:38;;;;;;;1054.47;424.10;;;6.40;99.90;;;;;;5074533;28;20443;-87
2023/01/06 19:32:05;;;;;;;948.35;412.67;;;6.40;99.90;;;;;;5075033;28;20044;-89
2023/01/06 19:35:39;;;;;;;923.20;396.70;;;6.60;99.90;;;;;;4959628;28;20062;-87
2023/01/06 19:39:15;;;;;;;1069.97;418.17;;;6.40;99.90;;;;;;4918162;29;20139;-90
2023/01/06 19:46:43;;;;;;;1147.47;445.33;;;5.70;99.90;;;;;;4877978;29;20562;-90
2023/01/06 19:54:31;;;;;;;1272.50;453.67;;;6.10;99.90;;;;;;4804450;29;20062;-92
2023/01/06 19:57:55;;;;;;;1217.77;452.50;;;6.10;99.90;;;;;;4804267;29;20524;-89
2023/01/06 20:08:40;;;;;;;1230.37;449.57;;;5.80;99.90;;;;;;4787540;30;20138;-91
2023/01/06 20:19:21;;;;;;;1257.20;449.47;;;5.60;99.90;;;;;;4699152;30;20046;-88
2023/01/06 20:22:01;;;;;;;1279.90;500.20;;;5.50;99.90;;;;;;4700765;30;20063;-88
2023/01/06 20:24:40;;;;;;;1250.30;448.37;;;6.00;99.90;;;;;;4757841;30;20066;-89
2023/01/06 20:27:12;;;;;;;1262.20;496.33;;;5.40;99.90;;;;;;4770953;30;20051;-88
2023/01/06 20:29:54;;;;;;;1264.80;497.00;;;5.30;99.90;;;;;;4784268;30;20104;-86
2023/01/06 20:32:23;;;;;;;1232.77;447.43;;;5.30;99.90;;;;;;4742160;30;20135;-88
2023/01/06 20:34:51;;;;;;;1259.47;501.13;;;5.20;99.90;;;;;;4772446;30;20146;-89
2023/01/06 20:37:18;;;;;;;1216.70;441.30;;;4.60;99.90;;;;;;4758775;30;20160;-88
2023/01/06 20:39:46;;;;;;;1255.97;503.20;;;5.10;99.90;;;;;;4776930;29;20145;-86
2023/01/06 20:42:19;;;;;;;1251.50;501.10;;;5.70;99.90;;;;;;4816379;29;20096;-87
2023/01/06 20:44:49;;;;;;;1243.67;501.10;;;5.10;99.90;;;;;;4816044;29;20062;-89
2023/01/06 20:47:24;;;;;;;1237.23;499.40;;;5.10;99.90;;;;;;4863463;29;20645;-88
2023/01/06 20:49:55;;;;;;;1222.43;497.20;;;5.10;99.90;;;;;;4961101;28;20140;-89
2023/01/06 20:52:27;;;;;;;1209.97;498.60;;;5.20;99.90;;;;;;5045861;28;20055;-90
2023/01/06 20:54:54;;;;;;;1177.80;439.57;;;5.20;99.90;;;;;;5056989;28;20048;-87
2023/01/06 20:57:22;;;;;;;1187.13;496.93;;;5.40;99.90;;;;;;5056861;28;20045;-88
2023/01/06 20:59:51;;;;;;;1177.13;500.77;;;5.40;99.90;;;;;;5057882;28;20048;-88
2023/01/06 21:02:20;;;;;;;1160.77;497.80;;;5.50;99.90;;;;;;5039583;28;20044;-89
2023/01/06 21:04:48;;;;;;;1144.13;430.77;;;5.60;99.90;;;;;;5037359;28;20080;-88
2023/01/06 21:07:19;;;;;;;1168.47;501.07;;;5.50;99.90;;;;;;5038552;28;20049;-90
2023/01/06 21:09:45;;;;;;;1147.40;435.17;;;5.70;99.90;;;;;;5036220;28;20049;-88
2023/01/06 21:12:13;;;;;;;1172.33;444.47;;;5.60;99.90;;;;;;5035162;28;20110;-90
2023/01/06 21:14:41;;;;;;;1191.63;497.57;;;5.60;99.90;;;;;;5037925;28;20045;-87
2023/01/06 21:17:10;;;;;;;1187.63;493.97;;;5.70;99.90;;;;;;5055740;28;20049;-90
2023/01/06 21:19:41;;;;;;;1192.80;494.10;;;5.70;99.90;;;;;;5034861;28;20482;-88
2023/01/06 21:22:22;;;;;;;1172.17;440.23;;;5.70;99.90;;;;;;5035242;28;20048;-87
2023/01/06 21:25:37;;;;;;;1182.00;453.37;;;5.30;99.90;;;;;;5044007;28;20060;-89
2023/01/06 21:45:16;;;;;;;;;;;;;;;;;;;;;
2023/01/06 21:57:35;;;;;;;1153.43;469.63;;;5.50;99.90;;;;;;4921852;29;20123;-89
2023/01/06 22:04:52;;;;;;;1144.67;442.37;;;6.60;99.90;;;;;;4861109;29;20112;-89
2023/01/06 22:12:18;;;;;;;985.00;412.87;;;6.00;99.90;;;;;;4862585;29;20198;-89
2023/01/06 22:15:36;;;;;;;978.87;416.27;;;6.00;99.90;;;;;;4787959;29;20094;-88
2023/01/06 22:34:47;;;;;;;;;;;6.50;99.90;;;;;;4865057;29;20464;-89
2023/01/06 23:09:18;;;;;;;6.72;2.47;;;6.90;99.90;;;;;;4787030;30;20112;-90
2023/01/06 23:12:51;;;;;;;5.15;2.58;;;7.00;99.90;;;;;;4785968;30;20146;-89
2023/01/06 23:24:02;;;;;;;4.88;2.67;;;7.10;99.90;;;;;;4799411;29;20045;-90
2023/01/06 23:38:49;;;;;;;8.90;4.47;;;7.30;99.90;;;;;;4896436;29;20410;-87
2023/01/06 23:57:06;;;;;;;13.20;6.35;;;7.50;99.90;;;;;;4824212;29;20095;-87
